No particular awareness of the weather is required.    There are no Weather-warnings


Meteo18 Weather Cam more information Meteo18 Weather Cam


Thunder radar more information blitzortung!


Rain radar more information rain snow radar


Visit our other weather sites:

Template documentation
and downloads

And another site



Weather Underground History page Text

Daily Summary for February 8, 2017 Units:  Both    English   Metric
« Previous Day
Next Day »
Daily Weekly Monthly Yearly Custom
  High: Low: Average:
Temperature: 43.5 °F /  6.4 °C 37.4 °F /  3.0 °C 40.8 °F /  4.9 °C
Dew Point: 40.5 °F /  4.7 °C 35.8 °F /  2.1 °C 37.8 °F /  3.2 °C
Humidity: 96 % 78 % 89 %
Wind Speed: 7 mph /  11.3 km/h - 2.1 mph /  3.4 km/h
Wind Gust: 12 mph /  19.3 km/h - -
Wind:- - WNW
Pressure: 30.3 in /  1025.6 hPa 30.1 in /  1018.5 hPa -
Precipitation: 0.02 in /  0.5 mm    
Historical Graphs
 
 
Tabular Data for February 8, 2017
Time Temperature Dew Point Pressure Wind Wind Speed Wind Gust Humidity Rainfall Rate (Hourly)
00:02 41.9 °F /  5.5 °C 38.7 °F /  3.7 °C 30.1 in /  1018.5 hPa NW 1 mph /  1.6 km/h 3 mph /  4.8 km/h 88 % 0 in /  0.0 mm
00:07 41.9 °F /  5.5 °C 38.7 °F /  3.7 °C 30.1 in /  1018.5 hPa NW 1 mph /  1.6 km/h 3 mph /  4.8 km/h 88 % 0 in /  0.0 mm
00:12 41.7 °F /  5.4 °C 38.5 °F /  3.6 °C 30.1 in /  1018.5 hPa NNW 1 mph /  1.6 km/h 3 mph /  4.8 km/h 88 % 0 in /  0.0 mm
00:17 41.5 °F /  5.3 °C 38.3 °F /  3.5 °C 30.1 in /  1018.5 hPa NNW 1 mph /  1.6 km/h 3 mph /  4.8 km/h 88 % 0 in /  0.0 mm
00:22 41.4 °F /  5.2 °C 38.1 °F /  3.4 °C 30.1 in /  1018.8 hPa NNW 2 mph /  3.2 km/h 3 mph /  4.8 km/h 88 % 0 in /  0.0 mm
00:27 41.4 °F /  5.2 °C 38.1 °F /  3.4 °C 30.1 in /  1018.8 hPa NW 2 mph /  3.2 km/h 3 mph /  4.8 km/h 88 % 0 in /  0.0 mm
00:32 41.4 °F /  5.2 °C 38.1 °F /  3.4 °C 30.1 in /  1018.8 hPa NW 1 mph /  1.6 km/h 6 mph /  9.7 km/h 88 % 0 in /  0.0 mm
00:37 41.2 °F /  5.1 °C 37.9 °F /  3.3 °C 30.1 in /  1018.8 hPa NW 2 mph /  3.2 km/h 6 mph /  9.7 km/h 88 % 0 in /  0.0 mm
00:42 41.2 °F /  5.1 °C 37.9 °F /  3.3 °C 30.1 in /  1018.5 hPa NW 2 mph /  3.2 km/h 6 mph /  9.7 km/h 88 % 0 in /  0.0 mm
00:47 40.8 °F /  4.9 °C 37.6 °F /  3.1 °C 30.1 in /  1018.8 hPa Calm   6 mph /  9.7 km/h 88 % 0 in /  0.0 mm
00:52 40.8 °F /  4.9 °C 37.6 °F /  3.1 °C 30.1 in /  1018.8 hPa NW 3 mph /  4.8 km/h 5 mph /  8.0 km/h 88 % 0 in /  0.0 mm
00:57 40.8 °F /  4.9 °C 37.6 °F /  3.1 °C 30.1 in /  1018.8 hPa Calm   4 mph /  6.4 km/h 88 % 0 in /  0.0 mm
01:02 40.8 °F /  4.9 °C 37.6 °F /  3.1 °C 30.1 in /  1018.8 hPa NW 1 mph /  1.6 km/h 4 mph /  6.4 km/h 88 % 0 in /  0.0 mm
01:07 40.6 °F /  4.8 °C 37.4 °F /  3.0 °C 30.1 in /  1018.8 hPa NNW 1 mph /  1.6 km/h 4 mph /  6.4 km/h 88 % 0 in /  0.0 mm
01:12 40.6 °F /  4.8 °C 37.4 °F /  3.0 °C 30.1 in /  1018.8 hPa WNW 1 mph /  1.6 km/h 3 mph /  4.8 km/h 88 % 0 in /  0.0 mm
01:17 40.6 °F /  4.8 °C 37.4 °F /  3.0 °C 30.1 in /  1018.8 hPa North 1 mph /  1.6 km/h 3 mph /  4.8 km/h 88 % 0 in /  0.0 mm
01:22 40.6 °F /  4.8 °C 37.4 °F /  3.0 °C 30.1 in /  1018.8 hPa NNW 1 mph /  1.6 km/h 3 mph /  4.8 km/h 88 % 0 in /  0.0 mm
01:27 40.5 °F /  4.7 °C 37.2 °F /  2.9 °C 30.1 in /  1018.8 hPa Calm   4 mph /  6.4 km/h 88 % 0 in /  0.0 mm
01:32 40.1 °F /  4.5 °C 37 °F /  2.8 °C 30.1 in /  1018.5 hPa Calm   4 mph /  6.4 km/h 89 % 0 in /  0.0 mm
01:37 40.1 °F /  4.5 °C 37 °F /  2.8 °C 30.1 in /  1018.5 hPa Calm   4 mph /  6.4 km/h 89 % 0 in /  0.0 mm
01:42 39.6 °F /  4.2 °C 36.9 °F /  2.7 °C 30.1 in /  1018.5 hPa NW 2 mph /  3.2 km/h 3 mph /  4.8 km/h 90 % 0 in /  0.0 mm
01:47 39.9 °F /  4.4 °C 37.2 °F /  2.9 °C 30.1 in /  1018.8 hPa NW 1 mph /  1.6 km/h 4 mph /  6.4 km/h 90 % 0 in /  0.0 mm
01:52 40.3 °F /  4.6 °C 37.2 °F /  2.9 °C 30.1 in /  1018.8 hPa NNW 3 mph /  4.8 km/h 4 mph /  6.4 km/h 89 % 0 in /  0.0 mm
01:57 40.3 °F /  4.6 °C 37 °F /  2.8 °C 30.1 in /  1018.8 hPa NNW 1 mph /  1.6 km/h 4 mph /  6.4 km/h 88 % 0 in /  0.0 mm
02:02 40.1 °F /  4.5 °C 36.9 °F /  2.7 °C 30.1 in /  1018.8 hPa Calm   3 mph /  4.8 km/h 88 % 0 in /  0.0 mm
02:07 39.9 °F /  4.4 °C 36.7 °F /  2.6 °C 30.1 in /  1018.8 hPa WNW 2 mph /  3.2 km/h 3 mph /  4.8 km/h 88 % 0 in /  0.0 mm
02:12 40.1 °F /  4.5 °C 36.9 °F /  2.7 °C 30.1 in /  1018.8 hPa WNW 1 mph /  1.6 km/h 3 mph /  4.8 km/h 88 % 0 in /  0.0 mm
02:17 40.5 °F /  4.7 °C 36.9 °F /  2.7 °C 30.1 in /  1018.8 hPa WNW 1 mph /  1.6 km/h 3 mph /  4.8 km/h 87 % 0 in /  0.0 mm
02:22 40.6 °F /  4.8 °C 37 °F /  2.8 °C 30.1 in /  1018.8 hPa NNW 2 mph /  3.2 km/h 3 mph /  4.8 km/h 87 % 0 in /  0.0 mm
02:27 40.8 °F /  4.9 °C 37 °F /  2.8 °C 30.1 in /  1018.8 hPa NW 1 mph /  1.6 km/h 3 mph /  4.8 km/h 86 % 0 in /  0.0 mm
02:32 40.8 °F /  4.9 °C 37 °F /  2.8 °C 30.1 in /  1018.8 hPa NW 1 mph /  1.6 km/h 3 mph /  4.8 km/h 86 % 0 in /  0.0 mm
02:37 41 °F /  5.0 °C 37.2 °F /  2.9 °C 30.1 in /  1018.8 hPa Calm   2 mph /  3.2 km/h 86 % 0 in /  0.0 mm
02:42 41 °F /  5.0 °C 37.2 °F /  2.9 °C 30.1 in /  1019.2 hPa NNW 1 mph /  1.6 km/h 2 mph /  3.2 km/h 86 % 0 in /  0.0 mm
02:47 41 °F /  5.0 °C 37.2 °F /  2.9 °C 30.1 in /  1019.2 hPa NW 1 mph /  1.6 km/h 2 mph /  3.2 km/h 86 % 0 in /  0.0 mm
02:52 41 °F /  5.0 °C 37.2 °F /  2.9 °C 30.1 in /  1019.2 hPa NW 1 mph /  1.6 km/h 2 mph /  3.2 km/h 86 % 0 in /  0.0 mm
02:57 40.8 °F /  4.9 °C 37.2 °F /  2.9 °C 30.1 in /  1019.2 hPa NW 1 mph /  1.6 km/h 3 mph /  4.8 km/h 87 % 0 in /  0.0 mm
03:02 40.8 °F /  4.9 °C 37.2 °F /  2.9 °C 30.1 in /  1019.2 hPa NW 2 mph /  3.2 km/h 3 mph /  4.8 km/h 87 % 0 in /  0.0 mm
03:07 40.8 °F /  4.9 °C 37.2 °F /  2.9 °C 30.1 in /  1019.2 hPa NW 3 mph /  4.8 km/h 3 mph /  4.8 km/h 87 % 0 in /  0.0 mm
03:12 41 °F /  5.0 °C 37.4 °F /  3.0 °C 30.1 in /  1019.2 hPa WNW 1 mph /  1.6 km/h 3 mph /  4.8 km/h 87 % 0 in /  0.0 mm
03:17 41.2 °F /  5.1 °C 37.6 °F /  3.1 °C 30.1 in /  1019.2 hPa Calm   3 mph /  4.8 km/h 87 % 0 in /  0.0 mm
03:22 41.2 °F /  5.1 °C 37.6 °F /  3.1 °C 30.1 in /  1019.2 hPa Calm   3 mph /  4.8 km/h 87 % 0 in /  0.0 mm
03:27 41.2 °F /  5.1 °C 37.6 °F /  3.1 °C 30.1 in /  1019.2 hPa Calm   3 mph /  4.8 km/h 87 % 0 in /  0.0 mm
03:32 41.2 °F /  5.1 °C 37.6 °F /  3.1 °C 30.1 in /  1019.2 hPa NW 1 mph /  1.6 km/h 2 mph /  3.2 km/h 87 % 0 in /  0.0 mm
03:37 41 °F /  5.0 °C 37.4 °F /  3.0 °C 30.1 in /  1019.2 hPa Calm   3 mph /  4.8 km/h 87 % 0 in /  0.0 mm
03:42 40.8 °F /  4.9 °C 37.6 °F /  3.1 °C 30.1 in /  1019.2 hPa NNW 2 mph /  3.2 km/h 3 mph /  4.8 km/h 88 % 0 in /  0.0 mm
03:52 40.8 °F /  4.9 °C 37.6 °F /  3.1 °C 30.1 in /  1019.2 hPa Calm   2 mph /  3.2 km/h 88 % 0 in /  0.0 mm
03:57 40.6 °F /  4.8 °C 37.4 °F /  3.0 °C 30.1 in /  1019.2 hPa NNW 2 mph /  3.2 km/h 2 mph /  3.2 km/h 88 % 0 in /  0.0 mm
04:02 40.6 °F /  4.8 °C 37.4 °F /  3.0 °C 30.1 in /  1019.2 hPa NNW 1 mph /  1.6 km/h 2 mph /  3.2 km/h 88 % 0 in /  0.0 mm
04:07 40.5 °F /  4.7 °C 37.2 °F /  2.9 °C 30.1 in /  1019.2 hPa Calm   2 mph /  3.2 km/h 88 % 0 in /  0.0 mm
04:12 40.5 °F /  4.7 °C 37.4 °F /  3.0 °C 30.1 in /  1019.2 hPa NNW 2 mph /  3.2 km/h 2 mph /  3.2 km/h 89 % 0 in /  0.0 mm
04:17 40.3 °F /  4.6 °C 37.2 °F /  2.9 °C 30.1 in /  1019.2 hPa NW 1 mph /  1.6 km/h 3 mph /  4.8 km/h 89 % 0 in /  0.0 mm
04:22 40.3 °F /  4.6 °C 37.2 °F /  2.9 °C 30.1 in /  1019.2 hPa NW 1 mph /  1.6 km/h 3 mph /  4.8 km/h 89 % 0 in /  0.0 mm
04:27 40.3 °F /  4.6 °C 37.2 °F /  2.9 °C 30.1 in /  1019.2 hPa NW 1 mph /  1.6 km/h 4 mph /  6.4 km/h 89 % 0 in /  0.0 mm
04:32 40.3 °F /  4.6 °C 37.2 °F /  2.9 °C 30.1 in /  1019.5 hPa NNW 1 mph /  1.6 km/h 5 mph /  8.0 km/h 89 % 0 in /  0.0 mm
04:37 39.9 °F /  4.4 °C 36.9 °F /  2.7 °C 30.1 in /  1019.5 hPa NNW 2 mph /  3.2 km/h 5 mph /  8.0 km/h 89 % 0 in /  0.0 mm
04:42 39.6 °F /  4.2 °C 36.5 °F /  2.5 °C 30.1 in /  1019.5 hPa NNW 1 mph /  1.6 km/h 5 mph /  8.0 km/h 89 % 0 in /  0.0 mm
04:47 39.4 °F /  4.1 °C 36.7 °F /  2.6 °C 30.1 in /  1019.5 hPa NNW 2 mph /  3.2 km/h 3 mph /  4.8 km/h 90 % 0 in /  0.0 mm
04:52 39.4 °F /  4.1 °C 36.7 °F /  2.6 °C 30.1 in /  1019.5 hPa NW 1 mph /  1.6 km/h 4 mph /  6.4 km/h 90 % 0 in /  0.0 mm
04:57 39 °F /  3.9 °C 36.7 °F /  2.6 °C 30.1 in /  1019.5 hPa NW 2 mph /  3.2 km/h 4 mph /  6.4 km/h 91 % 0 in /  0.0 mm
05:02 39.2 °F /  4.0 °C 36.9 °F /  2.7 °C 30.1 in /  1019.9 hPa NW 2 mph /  3.2 km/h 4 mph /  6.4 km/h 91 % 0 in /  0.0 mm
05:12 39 °F /  3.9 °C 36.7 °F /  2.6 °C 30.1 in /  1019.9 hPa NNW 1 mph /  1.6 km/h 3 mph /  4.8 km/h 91 % 0 in /  0.0 mm
05:17 38.8 °F /  3.8 °C 36.7 °F /  2.6 °C 30.1 in /  1019.9 hPa NNW 3 mph /  4.8 km/h 4 mph /  6.4 km/h 92 % 0 in /  0.0 mm
05:22 38.8 °F /  3.8 °C 36.7 °F /  2.6 °C 30.1 in /  1019.9 hPa NNW 4 mph /  6.4 km/h 4 mph /  6.4 km/h 92 % 0 in /  0.0 mm
05:32 38.7 °F /  3.7 °C 36.5 °F /  2.5 °C 30.1 in /  1019.9 hPa NW 1 mph /  1.6 km/h 5 mph /  8.0 km/h 92 % 0 in /  0.0 mm
05:37 38.5 °F /  3.6 °C 36.3 °F /  2.4 °C 30.1 in /  1019.9 hPa NW 1 mph /  1.6 km/h 5 mph /  8.0 km/h 92 % 0 in /  0.0 mm
05:42 38.3 °F /  3.5 °C 36.1 °F /  2.3 °C 30.1 in /  1019.9 hPa NNW 2 mph /  3.2 km/h 5 mph /  8.0 km/h 92 % 0 in /  0.0 mm
05:47 38.5 °F /  3.6 °C 36.3 °F /  2.4 °C 30.1 in /  1019.9 hPa NNW 2 mph /  3.2 km/h 4 mph /  6.4 km/h 92 % 0 in /  0.0 mm
05:52 38.3 °F /  3.5 °C 36.1 °F /  2.3 °C 30.1 in /  1019.9 hPa NNW 1 mph /  1.6 km/h 4 mph /  6.4 km/h 92 % 0 in /  0.0 mm
05:57 37.9 °F /  3.3 °C 35.8 °F /  2.1 °C 30.1 in /  1019.9 hPa North 2 mph /  3.2 km/h 4 mph /  6.4 km/h 92 % 0 in /  0.0 mm
06:02 37.9 °F /  3.3 °C 36.1 °F /  2.3 °C 30.1 in /  1019.9 hPa NW 2 mph /  3.2 km/h 5 mph /  8.0 km/h 93 % 0 in /  0.0 mm
06:07 38.1 °F /  3.4 °C 36.3 °F /  2.4 °C 30.1 in /  1020.2 hPa North 3 mph /  4.8 km/h 5 mph /  8.0 km/h 93 % 0 in /  0.0 mm
06:12 38.3 °F /  3.5 °C 36.5 °F /  2.5 °C 30.1 in /  1020.2 hPa NW 2 mph /  3.2 km/h 5 mph /  8.0 km/h 93 % 0 in /  0.0 mm
06:17 38.3 °F /  3.5 °C 36.5 °F /  2.5 °C 30.1 in /  1020.2 hPa NNW 2 mph /  3.2 km/h 5 mph /  8.0 km/h 93 % 0 in /  0.0 mm
06:22 38.5 °F /  3.6 °C 36.7 °F /  2.6 °C 30.1 in /  1020.2 hPa NNW 2 mph /  3.2 km/h 5 mph /  8.0 km/h 93 % 0 in /  0.0 mm
06:27 38.5 °F /  3.6 °C 36.7 °F /  2.6 °C 30.1 in /  1020.2 hPa NNW 2 mph /  3.2 km/h 5 mph /  8.0 km/h 93 % 0 in /  0.0 mm
06:32 38.5 °F /  3.6 °C 36.7 °F /  2.6 °C 30.1 in /  1020.2 hPa NW 2 mph /  3.2 km/h 5 mph /  8.0 km/h 93 % 0 in /  0.0 mm
06:37 38.7 °F /  3.7 °C 36.9 °F /  2.7 °C 30.1 in /  1020.2 hPa North 2 mph /  3.2 km/h 4 mph /  6.4 km/h 93 % 0 in /  0.0 mm
06:42 38.7 °F /  3.7 °C 36.9 °F /  2.7 °C 30.1 in /  1020.2 hPa North 1 mph /  1.6 km/h 5 mph /  8.0 km/h 93 % 0 in /  0.0 mm
06:52 38.1 °F /  3.4 °C 36.3 °F /  2.4 °C 30.1 in /  1020.5 hPa NNW 2 mph /  3.2 km/h 5 mph /  8.0 km/h 93 % 0 in /  0.0 mm
06:57 38.1 °F /  3.4 °C 36.3 °F /  2.4 °C 30.1 in /  1020.5 hPa NW 1 mph /  1.6 km/h 3 mph /  4.8 km/h 93 % 0 in /  0.0 mm
07:02 38.1 °F /  3.4 °C 36.3 °F /  2.4 °C 30.2 in /  1020.9 hPa NW 1 mph /  1.6 km/h 2 mph /  3.2 km/h 93 % 0 in /  0.0 mm
07:12 37.6 °F /  3.1 °C 35.8 °F /  2.1 °C 30.2 in /  1020.9 hPa NW 1 mph /  1.6 km/h 4 mph /  6.4 km/h 93 % 0 in /  0.0 mm
07:17 37.4 °F /  3.0 °C 35.8 °F /  2.1 °C 30.2 in /  1021.2 hPa NW 1 mph /  1.6 km/h 5 mph /  8.0 km/h 94 % 0 in /  0.0 mm
07:22 37.6 °F /  3.1 °C 36 °F /  2.2 °C 30.2 in /  1021.2 hPa NW 2 mph /  3.2 km/h 5 mph /  8.0 km/h 94 % 0 in /  0.0 mm
07:32 37.6 °F /  3.1 °C 36 °F /  2.2 °C 30.2 in /  1021.6 hPa NW 2 mph /  3.2 km/h 7 mph /  11.3 km/h 94 % 0 in /  0.0 mm
07:37 37.6 °F /  3.1 °C 36 °F /  2.2 °C 30.2 in /  1021.6 hPa NW 2 mph /  3.2 km/h 7 mph /  11.3 km/h 94 % 0 in /  0.0 mm
07:42 37.6 °F /  3.1 °C 36 °F /  2.2 °C 30.2 in /  1021.6 hPa NW 2 mph /  3.2 km/h 7 mph /  11.3 km/h 94 % 0 in /  0.0 mm
07:47 37.6 °F /  3.1 °C 36 °F /  2.2 °C 30.2 in /  1021.6 hPa NNW 2 mph /  3.2 km/h 6 mph /  9.7 km/h 94 % 0 in /  0.0 mm
07:52 37.6 °F /  3.1 °C 36.3 °F /  2.4 °C 30.2 in /  1021.6 hPa North 2 mph /  3.2 km/h 6 mph /  9.7 km/h 95 % 0 in /  0.0 mm
07:57 37.8 °F /  3.2 °C 36.5 °F /  2.5 °C 30.2 in /  1021.6 hPa WNW 2 mph /  3.2 km/h 6 mph /  9.7 km/h 95 % 0 in /  0.0 mm
08:02 37.9 °F /  3.3 °C 36.7 °F /  2.6 °C 30.2 in /  1021.6 hPa NNW 1 mph /  1.6 km/h 6 mph /  9.7 km/h 95 % 0 in /  0.0 mm
08:12 38.1 °F /  3.4 °C 36.5 °F /  2.5 °C 30.2 in /  1021.9 hPa NNW 1 mph /  1.6 km/h 6 mph /  9.7 km/h 94 % 0 in /  0.0 mm
08:17 38.1 °F /  3.4 °C 36.5 °F /  2.5 °C 30.2 in /  1021.9 hPa NW 1 mph /  1.6 km/h 7 mph /  11.3 km/h 94 % 0 in /  0.0 mm
08:22 38.1 °F /  3.4 °C 36.9 °F /  2.7 °C 30.2 in /  1021.9 hPa Calm   7 mph /  11.3 km/h 95 % 0 in /  0.0 mm
08:27 38.1 °F /  3.4 °C 36.9 °F /  2.7 °C 30.2 in /  1021.9 hPa NW 2 mph /  3.2 km/h 7 mph /  11.3 km/h 95 % 0 in /  0.0 mm
08:32 38.1 °F /  3.4 °C 36.9 °F /  2.7 °C 30.2 in /  1021.9 hPa NNW 4 mph /  6.4 km/h 6 mph /  9.7 km/h 95 % 0 in /  0.0 mm
08:37 38.3 °F /  3.5 °C 37 °F /  2.8 °C 30.2 in /  1021.9 hPa NW 2 mph /  3.2 km/h 6 mph /  9.7 km/h 95 % 0 in /  0.0 mm
08:42 38.5 °F /  3.6 °C 37.2 °F /  2.9 °C 30.2 in /  1022.2 hPa NW 1 mph /  1.6 km/h 6 mph /  9.7 km/h 95 % 0 in /  0.0 mm
08:47 38.5 °F /  3.6 °C 37.2 °F /  2.9 °C 30.2 in /  1022.2 hPa NNW 2 mph /  3.2 km/h 6 mph /  9.7 km/h 95 % 0 in /  0.0 mm
08:52 38.5 °F /  3.6 °C 37.2 °F /  2.9 °C 30.2 in /  1022.2 hPa NW 3 mph /  4.8 km/h 6 mph /  9.7 km/h 95 % 0 in /  0.0 mm
08:57 38.5 °F /  3.6 °C 37.2 °F /  2.9 °C 30.2 in /  1022.2 hPa NW 3 mph /  4.8 km/h 5 mph /  8.0 km/h 95 % 0 in /  0.0 mm
09:02 38.7 °F /  3.7 °C 37.6 °F /  3.1 °C 30.2 in /  1022.2 hPa NW 2 mph /  3.2 km/h 5 mph /  8.0 km/h 96 % 0.01 in /  0.3 mm
09:12 38.8 °F /  3.8 °C 37.8 °F /  3.2 °C 30.2 in /  1022.2 hPa NNW 4 mph /  6.4 km/h 5 mph /  8.0 km/h 96 % 0.01 in /  0.3 mm
09:17 38.8 °F /  3.8 °C 37.8 °F /  3.2 °C 30.2 in /  1022.2 hPa Calm   5 mph /  8.0 km/h 96 % 0.01 in /  0.3 mm
09:22 38.8 °F /  3.8 °C 37.8 °F /  3.2 °C 30.2 in /  1022.2 hPa NW 4 mph /  6.4 km/h 5 mph /  8.0 km/h 96 % 0.01 in /  0.3 mm
09:27 39 °F /  3.9 °C 37.9 °F /  3.3 °C 30.2 in /  1022.6 hPa NNW 3 mph /  4.8 km/h 5 mph /  8.0 km/h 96 % 0.01 in /  0.3 mm
09:32 39.2 °F /  4.0 °C 38.1 °F /  3.4 °C 30.2 in /  1022.6 hPa NW 4 mph /  6.4 km/h 5 mph /  8.0 km/h 96 % 0.01 in /  0.3 mm
09:37 39.2 °F /  4.0 °C 38.1 °F /  3.4 °C 30.2 in /  1022.6 hPa North 1 mph /  1.6 km/h 5 mph /  8.0 km/h 96 % 0.01 in /  0.3 mm
09:42 39.2 °F /  4.0 °C 38.1 °F /  3.4 °C 30.2 in /  1022.6 hPa NW 1 mph /  1.6 km/h 5 mph /  8.0 km/h 96 % 0.01 in /  0.3 mm
09:47 39.4 °F /  4.1 °C 38.3 °F /  3.5 °C 30.2 in /  1022.6 hPa NW 1 mph /  1.6 km/h 5 mph /  8.0 km/h 96 % 0.02 in /  0.5 mm
09:52 39.4 °F /  4.1 °C 38.3 °F /  3.5 °C 30.2 in /  1022.6 hPa WNW 3 mph /  4.8 km/h 4 mph /  6.4 km/h 96 % 0.02 in /  0.5 mm
10:02 39.4 °F /  4.1 °C 38.3 °F /  3.5 °C 30.2 in /  1022.6 hPa NW 3 mph /  4.8 km/h 6 mph /  9.7 km/h 96 % 0.01 in /  0.3 mm
10:07 39.6 °F /  4.2 °C 38.5 °F /  3.6 °C 30.2 in /  1022.9 hPa WNW 2 mph /  3.2 km/h 6 mph /  9.7 km/h 96 % 0.01 in /  0.3 mm
10:12 39.7 °F /  4.3 °C 38.7 °F /  3.7 °C 30.2 in /  1022.9 hPa NW 2 mph /  3.2 km/h 5 mph /  8.0 km/h 96 % 0.01 in /  0.3 mm
10:17 39.9 °F /  4.4 °C 38.8 °F /  3.8 °C 30.2 in /  1022.9 hPa NW 2 mph /  3.2 km/h 5 mph /  8.0 km/h 96 % 0.01 in /  0.3 mm
10:22 39.9 °F /  4.4 °C 38.8 °F /  3.8 °C 30.2 in /  1022.9 hPa NW 1 mph /  1.6 km/h 5 mph /  8.0 km/h 96 % 0.01 in /  0.3 mm
10:27 40.3 °F /  4.6 °C 39.2 °F /  4.0 °C 30.2 in /  1022.9 hPa NW 1 mph /  1.6 km/h 5 mph /  8.0 km/h 96 % 0.01 in /  0.3 mm
10:32 40.5 °F /  4.7 °C 39.4 °F /  4.1 °C 30.2 in /  1022.9 hPa West 4 mph /  6.4 km/h 4 mph /  6.4 km/h 96 % 0.01 in /  0.3 mm
10:37 40.5 °F /  4.7 °C 39.2 °F /  4.0 °C 30.2 in /  1022.9 hPa NW 1 mph /  1.6 km/h 5 mph /  8.0 km/h 95 % 0.01 in /  0.3 mm
10:42 40.5 °F /  4.7 °C 39.2 °F /  4.0 °C 30.2 in /  1022.9 hPa NNW 3 mph /  4.8 km/h 7 mph /  11.3 km/h 95 % 0.01 in /  0.3 mm
10:47 40.6 °F /  4.8 °C 39.4 °F /  4.1 °C 30.2 in /  1022.9 hPa NNW 4 mph /  6.4 km/h 8 mph /  12.9 km/h 95 % 0 in /  0.0 mm
10:52 40.5 °F /  4.7 °C 38.8 °F /  3.8 °C 30.2 in /  1022.9 hPa West 4 mph /  6.4 km/h 8 mph /  12.9 km/h 94 % 0 in /  0.0 mm
10:57 40.6 °F /  4.8 °C 39.4 °F /  4.1 °C 30.2 in /  1022.9 hPa West 3 mph /  4.8 km/h 8 mph /  12.9 km/h 95 % 0 in /  0.0 mm
11:02 40.5 °F /  4.7 °C 39.2 °F /  4.0 °C 30.2 in /  1022.9 hPa WNW 7 mph /  11.3 km/h 10 mph /  16.1 km/h 95 % 0 in /  0.0 mm
11:07 40.5 °F /  4.7 °C 39.2 °F /  4.0 °C 30.2 in /  1023.2 hPa NW 3 mph /  4.8 km/h 10 mph /  16.1 km/h 95 % 0 in /  0.0 mm
11:12 40.5 °F /  4.7 °C 39.2 °F /  4.0 °C 30.2 in /  1023.2 hPa NW 6 mph /  9.7 km/h 10 mph /  16.1 km/h 95 % 0 in /  0.0 mm
11:17 40.6 °F /  4.8 °C 39.4 °F /  4.1 °C 30.2 in /  1023.2 hPa NNW 4 mph /  6.4 km/h 8 mph /  12.9 km/h 95 % 0 in /  0.0 mm
11:22 40.6 °F /  4.8 °C 39.4 °F /  4.1 °C 30.2 in /  1023.2 hPa WNW 4 mph /  6.4 km/h 8 mph /  12.9 km/h 95 % 0 in /  0.0 mm
11:27 40.8 °F /  4.9 °C 39.6 °F /  4.2 °C 30.2 in /  1023.2 hPa NNW 3 mph /  4.8 km/h 8 mph /  12.9 km/h 95 % 0 in /  0.0 mm
11:32 40.8 °F /  4.9 °C 39.6 °F /  4.2 °C 30.2 in /  1023.2 hPa NNW 3 mph /  4.8 km/h 8 mph /  12.9 km/h 95 % 0 in /  0.0 mm
11:42 41.2 °F /  5.1 °C 39.9 °F /  4.4 °C 30.2 in /  1023.6 hPa NNW 3 mph /  4.8 km/h 10 mph /  16.1 km/h 95 % 0 in /  0.0 mm
11:52 41.5 °F /  5.3 °C 39.9 °F /  4.4 °C 30.2 in /  1023.6 hPa NW 2 mph /  3.2 km/h 8 mph /  12.9 km/h 94 % 0 in /  0.0 mm
11:57 41.5 °F /  5.3 °C 39.9 °F /  4.4 °C 30.2 in /  1023.6 hPa NNW 3 mph /  4.8 km/h 8 mph /  12.9 km/h 94 % 0 in /  0.0 mm
12:02 41.7 °F /  5.4 °C 40.1 °F /  4.5 °C 30.2 in /  1023.6 hPa NNW 3 mph /  4.8 km/h 8 mph /  12.9 km/h 94 % 0 in /  0.0 mm
12:07 41.7 °F /  5.4 °C 40.1 °F /  4.5 °C 30.2 in /  1023.6 hPa NW 4 mph /  6.4 km/h 9 mph /  14.5 km/h 94 % 0 in /  0.0 mm
12:12 41.7 °F /  5.4 °C 39.9 °F /  4.4 °C 30.2 in /  1023.6 hPa WNW 4 mph /  6.4 km/h 9 mph /  14.5 km/h 93 % 0 in /  0.0 mm
12:17 41.7 °F /  5.4 °C 39.9 °F /  4.4 °C 30.2 in /  1023.9 hPa NNE 3 mph /  4.8 km/h 10 mph /  16.1 km/h 93 % 0 in /  0.0 mm
12:22 41.7 °F /  5.4 °C 39.9 °F /  4.4 °C 30.2 in /  1023.9 hPa NNW 3 mph /  4.8 km/h 10 mph /  16.1 km/h 93 % 0 in /  0.0 mm
12:27 41.7 °F /  5.4 °C 39.9 °F /  4.4 °C 30.2 in /  1023.9 hPa NNW 5 mph /  8.0 km/h 10 mph /  16.1 km/h 93 % 0 in /  0.0 mm
12:32 41.7 °F /  5.4 °C 39.9 °F /  4.4 °C 30.2 in /  1023.9 hPa WNW 3 mph /  4.8 km/h 9 mph /  14.5 km/h 93 % 0 in /  0.0 mm
12:37 41.7 °F /  5.4 °C 39.9 °F /  4.4 °C 30.2 in /  1023.9 hPa NW 4 mph /  6.4 km/h 9 mph /  14.5 km/h 93 % 0 in /  0.0 mm
12:42 41.5 °F /  5.3 °C 39.7 °F /  4.3 °C 30.2 in /  1023.9 hPa NNW 2 mph /  3.2 km/h 9 mph /  14.5 km/h 93 % 0 in /  0.0 mm
12:52 41.4 °F /  5.2 °C 39.7 °F /  4.3 °C 30.2 in /  1023.9 hPa NW 5 mph /  8.0 km/h 12 mph /  19.3 km/h 94 % 0 in /  0.0 mm
12:57 41.4 °F /  5.2 °C 39.7 °F /  4.3 °C 30.2 in /  1023.9 hPa NW 1 mph /  1.6 km/h 12 mph /  19.3 km/h 94 % 0 in /  0.0 mm
13:02 41.2 °F /  5.1 °C 39.6 °F /  4.2 °C 30.2 in /  1023.9 hPa NNW 3 mph /  4.8 km/h 12 mph /  19.3 km/h 94 % 0 in /  0.0 mm
13:07 41.4 °F /  5.2 °C 39.7 °F /  4.3 °C 30.2 in /  1023.9 hPa NNW 1 mph /  1.6 km/h 9 mph /  14.5 km/h 94 % 0 in /  0.0 mm
13:12 41.4 °F /  5.2 °C 39.7 °F /  4.3 °C 30.2 in /  1023.9 hPa NNW 3 mph /  4.8 km/h 8 mph /  12.9 km/h 94 % 0 in /  0.0 mm
13:17 41.5 °F /  5.3 °C 39.9 °F /  4.4 °C 30.2 in /  1023.9 hPa North 3 mph /  4.8 km/h 7 mph /  11.3 km/h 94 % 0 in /  0.0 mm
13:22 41.5 °F /  5.3 °C 39.9 °F /  4.4 °C 30.2 in /  1023.9 hPa North 6 mph /  9.7 km/h 6 mph /  9.7 km/h 94 % 0 in /  0.0 mm
13:27 41.7 °F /  5.4 °C 39.9 °F /  4.4 °C 30.2 in /  1023.9 hPa West 1 mph /  1.6 km/h 6 mph /  9.7 km/h 93 % 0 in /  0.0 mm
13:32 42.1 °F /  5.6 °C 39.9 °F /  4.4 °C 30.2 in /  1023.9 hPa West 2 mph /  3.2 km/h 6 mph /  9.7 km/h 92 % 0 in /  0.0 mm
13:37 42.4 °F /  5.8 °C 40.3 °F /  4.6 °C 30.2 in /  1023.9 hPa NW 1 mph /  1.6 km/h 6 mph /  9.7 km/h 92 % 0 in /  0.0 mm
13:42 43.2 °F /  6.2 °C 40.5 °F /  4.7 °C 30.2 in /  1023.9 hPa WNW 5 mph /  8.0 km/h 6 mph /  9.7 km/h 90 % 0 in /  0.0 mm
13:47 43.5 °F /  6.4 °C 40.5 °F /  4.7 °C 30.2 in /  1023.9 hPa NW 2 mph /  3.2 km/h 9 mph /  14.5 km/h 89 % 0 in /  0.0 mm
13:52 43.2 °F /  6.2 °C 40.1 °F /  4.5 °C 30.2 in /  1023.9 hPa NW 4 mph /  6.4 km/h 11 mph /  17.7 km/h 89 % 0 in /  0.0 mm
13:57 43.2 °F /  6.2 °C 40.1 °F /  4.5 °C 30.2 in /  1023.9 hPa NW 3 mph /  4.8 km/h 11 mph /  17.7 km/h 89 % 0 in /  0.0 mm
14:02 43 °F /  6.1 °C 39.9 °F /  4.4 °C 30.2 in /  1023.9 hPa NNW 4 mph /  6.4 km/h 11 mph /  17.7 km/h 89 % 0 in /  0.0 mm
14:07 42.6 °F /  5.9 °C 39.9 °F /  4.4 °C 30.2 in /  1023.9 hPa North 2 mph /  3.2 km/h 9 mph /  14.5 km/h 90 % 0 in /  0.0 mm
14:12 42.6 °F /  5.9 °C 39.9 °F /  4.4 °C 30.2 in /  1023.6 hPa NW 4 mph /  6.4 km/h 9 mph /  14.5 km/h 90 % 0 in /  0.0 mm
14:17 42.8 °F /  6.0 °C 40.1 °F /  4.5 °C 30.2 in /  1023.6 hPa NW 2 mph /  3.2 km/h 7 mph /  11.3 km/h 90 % 0 in /  0.0 mm
14:22 43.2 °F /  6.2 °C 40.1 °F /  4.5 °C 30.2 in /  1023.6 hPa NNW 4 mph /  6.4 km/h 8 mph /  12.9 km/h 89 % 0 in /  0.0 mm
14:27 43.2 °F /  6.2 °C 39.9 °F /  4.4 °C 30.2 in /  1023.6 hPa WNW 4 mph /  6.4 km/h 8 mph /  12.9 km/h 88 % 0 in /  0.0 mm
14:32 43.3 °F /  6.3 °C 39.7 °F /  4.3 °C 30.2 in /  1023.6 hPa NNW 5 mph /  8.0 km/h 8 mph /  12.9 km/h 87 % 0 in /  0.0 mm
14:37 43.3 °F /  6.3 °C 40.1 °F /  4.5 °C 30.2 in /  1023.6 hPa North 3 mph /  4.8 km/h 9 mph /  14.5 km/h 88 % 0 in /  0.0 mm
14:42 43.5 °F /  6.4 °C 40.3 °F /  4.6 °C 30.2 in /  1023.6 hPa NNW 2 mph /  3.2 km/h 9 mph /  14.5 km/h 88 % 0 in /  0.0 mm
14:47 43.5 °F /  6.4 °C 39.9 °F /  4.4 °C 30.2 in /  1023.6 hPa NNW 2 mph /  3.2 km/h 8 mph /  12.9 km/h 87 % 0 in /  0.0 mm
14:52 43.5 °F /  6.4 °C 39.4 °F /  4.1 °C 30.2 in /  1023.6 hPa NW 4 mph /  6.4 km/h 8 mph /  12.9 km/h 85 % 0 in /  0.0 mm
14:57 43.5 °F /  6.4 °C 39.6 °F /  4.2 °C 30.2 in /  1023.6 hPa NW 4 mph /  6.4 km/h 8 mph /  12.9 km/h 86 % 0 in /  0.0 mm
15:02 43.5 °F /  6.4 °C 39.4 °F /  4.1 °C 30.2 in /  1023.6 hPa NNW 2 mph /  3.2 km/h 7 mph /  11.3 km/h 85 % 0 in /  0.0 mm
15:07 43.5 °F /  6.4 °C 39.4 °F /  4.1 °C 30.2 in /  1023.6 hPa NNW 1 mph /  1.6 km/h 7 mph /  11.3 km/h 85 % 0 in /  0.0 mm
15:12 43.3 °F /  6.3 °C 39.2 °F /  4.0 °C 30.2 in /  1023.9 hPa WNW 1 mph /  1.6 km/h 7 mph /  11.3 km/h 85 % 0 in /  0.0 mm
15:17 43.3 °F /  6.3 °C 38.8 °F /  3.8 °C 30.2 in /  1023.9 hPa WNW 3 mph /  4.8 km/h 7 mph /  11.3 km/h 84 % 0 in /  0.0 mm
15:22 43.3 °F /  6.3 °C 38.5 °F /  3.6 °C 30.2 in /  1023.6 hPa North 4 mph /  6.4 km/h 10 mph /  16.1 km/h 83 % 0 in /  0.0 mm
15:27 43.3 °F /  6.3 °C 38.8 °F /  3.8 °C 30.2 in /  1023.9 hPa North 4 mph /  6.4 km/h 10 mph /  16.1 km/h 84 % 0 in /  0.0 mm
15:32 43.3 °F /  6.3 °C 38.8 °F /  3.8 °C 30.2 in /  1023.9 hPa NW 3 mph /  4.8 km/h 9 mph /  14.5 km/h 84 % 0 in /  0.0 mm
15:37 43.3 °F /  6.3 °C 39.2 °F /  4.0 °C 30.2 in /  1023.9 hPa NNW 5 mph /  8.0 km/h 9 mph /  14.5 km/h 85 % 0 in /  0.0 mm
15:42 43.3 °F /  6.3 °C 39.2 °F /  4.0 °C 30.2 in /  1023.9 hPa North 2 mph /  3.2 km/h 10 mph /  16.1 km/h 85 % 0 in /  0.0 mm
15:52 43.3 °F /  6.3 °C 39.2 °F /  4.0 °C 30.2 in /  1023.9 hPa NW 3 mph /  4.8 km/h 10 mph /  16.1 km/h 85 % 0 in /  0.0 mm
15:57 43.5 °F /  6.4 °C 39.4 °F /  4.1 °C 30.2 in /  1023.9 hPa NNE 4 mph /  6.4 km/h 7 mph /  11.3 km/h 85 % 0 in /  0.0 mm
16:02 43.3 °F /  6.3 °C 38.8 °F /  3.8 °C 30.3 in /  1024.3 hPa North 4 mph /  6.4 km/h 7 mph /  11.3 km/h 84 % 0 in /  0.0 mm
16:07 43.5 °F /  6.4 °C 38.7 °F /  3.7 °C 30.2 in /  1023.9 hPa NNW 2 mph /  3.2 km/h 8 mph /  12.9 km/h 83 % 0 in /  0.0 mm
16:12 43.5 °F /  6.4 °C 38.7 °F /  3.7 °C 30.2 in /  1023.9 hPa NNW 4 mph /  6.4 km/h 8 mph /  12.9 km/h 83 % 0 in /  0.0 mm
16:17 43.5 °F /  6.4 °C 39 °F /  3.9 °C 30.2 in /  1023.9 hPa NW 3 mph /  4.8 km/h 8 mph /  12.9 km/h 84 % 0 in /  0.0 mm
16:27 43.5 °F /  6.4 °C 38.5 °F /  3.6 °C 30.3 in /  1024.3 hPa North 6 mph /  9.7 km/h 8 mph /  12.9 km/h 82 % 0 in /  0.0 mm
16:32 43.5 °F /  6.4 °C 38.5 °F /  3.6 °C 30.3 in /  1024.3 hPa NNW 4 mph /  6.4 km/h 8 mph /  12.9 km/h 82 % 0 in /  0.0 mm
16:37 43.5 °F /  6.4 °C 38.1 °F /  3.4 °C 30.2 in /  1023.9 hPa NNE 3 mph /  4.8 km/h 10 mph /  16.1 km/h 81 % 0 in /  0.0 mm
16:42 43.5 °F /  6.4 °C 38.1 °F /  3.4 °C 30.2 in /  1023.9 hPa North 5 mph /  8.0 km/h 10 mph /  16.1 km/h 81 % 0 in /  0.0 mm
16:47 43.5 °F /  6.4 °C 37.8 °F /  3.2 °C 30.2 in /  1023.9 hPa NW 4 mph /  6.4 km/h 10 mph /  16.1 km/h 80 % 0 in /  0.0 mm
16:52 43.5 °F /  6.4 °C 38.1 °F /  3.4 °C 30.3 in /  1024.3 hPa NW 3 mph /  4.8 km/h 8 mph /  12.9 km/h 81 % 0 in /  0.0 mm
16:57 43.5 °F /  6.4 °C 38.1 °F /  3.4 °C 30.3 in /  1024.3 hPa NW 4 mph /  6.4 km/h 8 mph /  12.9 km/h 81 % 0 in /  0.0 mm
17:02 43.3 °F /  6.3 °C 37.6 °F /  3.1 °C 30.3 in /  1024.3 hPa NNW 7 mph /  11.3 km/h 8 mph /  12.9 km/h 80 % 0 in /  0.0 mm
17:07 43.3 °F /  6.3 °C 37.2 °F /  2.9 °C 30.3 in /  1024.3 hPa North 5 mph /  8.0 km/h 9 mph /  14.5 km/h 79 % 0 in /  0.0 mm
17:12 43.3 °F /  6.3 °C 36.9 °F /  2.7 °C 30.3 in /  1024.3 hPa North 5 mph /  8.0 km/h 9 mph /  14.5 km/h 78 % 0 in /  0.0 mm
17:17 43.3 °F /  6.3 °C 37.2 °F /  2.9 °C 30.3 in /  1024.3 hPa NW 3 mph /  4.8 km/h 10 mph /  16.1 km/h 79 % 0 in /  0.0 mm
17:22 43.3 °F /  6.3 °C 36.9 °F /  2.7 °C 30.3 in /  1024.3 hPa NNE 4 mph /  6.4 km/h 10 mph /  16.1 km/h 78 % 0 in /  0.0 mm
17:27 43.2 °F /  6.2 °C 37 °F /  2.8 °C 30.3 in /  1024.3 hPa North 2 mph /  3.2 km/h 9 mph /  14.5 km/h 79 % 0 in /  0.0 mm
17:32 43.2 °F /  6.2 °C 37 °F /  2.8 °C 30.3 in /  1024.3 hPa NNW 3 mph /  4.8 km/h 9 mph /  14.5 km/h 79 % 0 in /  0.0 mm
17:37 43.2 °F /  6.2 °C 37 °F /  2.8 °C 30.3 in /  1024.3 hPa NNW 3 mph /  4.8 km/h 9 mph /  14.5 km/h 79 % 0 in /  0.0 mm
17:42 43 °F /  6.1 °C 37.2 °F /  2.9 °C 30.3 in /  1024.3 hPa North 5 mph /  8.0 km/h 8 mph /  12.9 km/h 80 % 0 in /  0.0 mm
17:47 43 °F /  6.1 °C 37.2 °F /  2.9 °C 30.3 in /  1024.3 hPa NNW 6 mph /  9.7 km/h 7 mph /  11.3 km/h 80 % 0 in /  0.0 mm
17:52 43 °F /  6.1 °C 37.2 °F /  2.9 °C 30.3 in /  1024.3 hPa NNW 5 mph /  8.0 km/h 8 mph /  12.9 km/h 80 % 0 in /  0.0 mm
17:57 42.8 °F /  6.0 °C 37.4 °F /  3.0 °C 30.3 in /  1024.3 hPa NNW 1 mph /  1.6 km/h 8 mph /  12.9 km/h 81 % 0 in /  0.0 mm
18:02 42.6 °F /  5.9 °C 37.2 °F /  2.9 °C 30.3 in /  1024.6 hPa NNW 1 mph /  1.6 km/h 8 mph /  12.9 km/h 81 % 0 in /  0.0 mm
18:07 42.6 °F /  5.9 °C 37.2 °F /  2.9 °C 30.3 in /  1024.6 hPa NNW 1 mph /  1.6 km/h 6 mph /  9.7 km/h 81 % 0 in /  0.0 mm
18:12 42.6 °F /  5.9 °C 37.2 °F /  2.9 °C 30.3 in /  1024.6 hPa NNW 1 mph /  1.6 km/h 6 mph /  9.7 km/h 81 % 0 in /  0.0 mm
18:17 42.6 °F /  5.9 °C 37.2 °F /  2.9 °C 30.3 in /  1024.9 hPa WNW 1 mph /  1.6 km/h 6 mph /  9.7 km/h 81 % 0 in /  0.0 mm
18:27 42.4 °F /  5.8 °C 37.4 °F /  3.0 °C 30.3 in /  1024.9 hPa Calm   4 mph /  6.4 km/h 82 % 0 in /  0.0 mm
18:32 42.3 °F /  5.7 °C 37.4 °F /  3.0 °C 30.3 in /  1024.9 hPa NNE 1 mph /  1.6 km/h 3 mph /  4.8 km/h 83 % 0 in /  0.0 mm
18:37 42.3 °F /  5.7 °C 37.4 °F /  3.0 °C 30.3 in /  1024.9 hPa Calm   3 mph /  4.8 km/h 83 % 0 in /  0.0 mm
18:42 42.1 °F /  5.6 °C 37.2 °F /  2.9 °C 30.3 in /  1024.9 hPa Calm   3 mph /  4.8 km/h 83 % 0 in /  0.0 mm
18:47 42.3 °F /  5.7 °C 37.4 °F /  3.0 °C 30.3 in /  1024.9 hPa Calm   3 mph /  4.8 km/h 83 % 0 in /  0.0 mm
18:52 42.3 °F /  5.7 °C 37.2 °F /  2.9 °C 30.3 in /  1024.9 hPa NW 1 mph /  1.6 km/h 3 mph /  4.8 km/h 82 % 0 in /  0.0 mm
18:57 42.3 °F /  5.7 °C 37.2 °F /  2.9 °C 30.3 in /  1024.9 hPa Calm   3 mph /  4.8 km/h 82 % 0 in /  0.0 mm
19:02 42.3 °F /  5.7 °C 37.2 °F /  2.9 °C 30.3 in /  1024.9 hPa NNW 1 mph /  1.6 km/h 4 mph /  6.4 km/h 82 % 0 in /  0.0 mm
19:07 42.3 °F /  5.7 °C 37.2 °F /  2.9 °C 30.3 in /  1024.9 hPa NNW 1 mph /  1.6 km/h 4 mph /  6.4 km/h 82 % 0 in /  0.0 mm
19:12 42.3 °F /  5.7 °C 37.2 °F /  2.9 °C 30.3 in /  1024.9 hPa Calm   4 mph /  6.4 km/h 82 % 0 in /  0.0 mm
19:17 42.3 °F /  5.7 °C 37.2 °F /  2.9 °C 30.3 in /  1024.9 hPa NW 2 mph /  3.2 km/h 4 mph /  6.4 km/h 82 % 0 in /  0.0 mm
19:22 42.3 °F /  5.7 °C 37.2 °F /  2.9 °C 30.3 in /  1024.9 hPa Calm   4 mph /  6.4 km/h 82 % 0 in /  0.0 mm
19:27 42.3 °F /  5.7 °C 37.4 °F /  3.0 °C 30.3 in /  1025.3 hPa NW 1 mph /  1.6 km/h 4 mph /  6.4 km/h 83 % 0 in /  0.0 mm
19:32 42.1 °F /  5.6 °C 37.2 °F /  2.9 °C 30.3 in /  1025.3 hPa NNW 2 mph /  3.2 km/h 4 mph /  6.4 km/h 83 % 0 in /  0.0 mm
19:37 42.1 °F /  5.6 °C 37.2 °F /  2.9 °C 30.3 in /  1025.3 hPa Calm   4 mph /  6.4 km/h 83 % 0 in /  0.0 mm
19:42 42.1 °F /  5.6 °C 37.2 °F /  2.9 °C 30.3 in /  1025.3 hPa NNE 1 mph /  1.6 km/h 4 mph /  6.4 km/h 83 % 0 in /  0.0 mm
19:47 41.9 °F /  5.5 °C 37.4 °F /  3.0 °C 30.3 in /  1025.3 hPa North 1 mph /  1.6 km/h 4 mph /  6.4 km/h 84 % 0 in /  0.0 mm
19:52 41.7 °F /  5.4 °C 37.2 °F /  2.9 °C 30.3 in /  1025.3 hPa NNW 2 mph /  3.2 km/h 4 mph /  6.4 km/h 84 % 0 in /  0.0 mm
19:57 41.7 °F /  5.4 °C 37.6 °F /  3.1 °C 30.3 in /  1025.3 hPa North 1 mph /  1.6 km/h 3 mph /  4.8 km/h 85 % 0 in /  0.0 mm
20:02 41.5 °F /  5.3 °C 37.4 °F /  3.0 °C 30.3 in /  1025.3 hPa North 1 mph /  1.6 km/h 3 mph /  4.8 km/h 85 % 0 in /  0.0 mm
20:07 41.4 °F /  5.2 °C 37.6 °F /  3.1 °C 30.3 in /  1025.6 hPa Calm   3 mph /  4.8 km/h 86 % 0 in /  0.0 mm
20:17 41.4 °F /  5.2 °C 37.6 °F /  3.1 °C 30.3 in /  1025.6 hPa NW 2 mph /  3.2 km/h 3 mph /  4.8 km/h 86 % 0 in /  0.0 mm
20:22 41.4 °F /  5.2 °C 37.2 °F /  2.9 °C 30.3 in /  1025.3 hPa Calm   3 mph /  4.8 km/h 85 % 0 in /  0.0 mm
20:32 41.4 °F /  5.2 °C 37.2 °F /  2.9 °C 30.3 in /  1025.6 hPa NNW 1 mph /  1.6 km/h 3 mph /  4.8 km/h 85 % 0 in /  0.0 mm
20:37 41.2 °F /  5.1 °C 37 °F /  2.8 °C 30.3 in /  1025.6 hPa North 1 mph /  1.6 km/h 2 mph /  3.2 km/h 85 % 0 in /  0.0 mm
20:42 41.2 °F /  5.1 °C 37 °F /  2.8 °C 30.3 in /  1025.6 hPa NNW 1 mph /  1.6 km/h 2 mph /  3.2 km/h 85 % 0 in /  0.0 mm
20:47 41 °F /  5.0 °C 37.2 °F /  2.9 °C 30.3 in /  1025.3 hPa NNW 1 mph /  1.6 km/h 2 mph /  3.2 km/h 86 % 0 in /  0.0 mm
20:52 41 °F /  5.0 °C 37.2 °F /  2.9 °C 30.3 in /  1025.3 hPa NW 1 mph /  1.6 km/h 2 mph /  3.2 km/h 86 % 0 in /  0.0 mm
20:57 40.8 °F /  4.9 °C 37 °F /  2.8 °C 30.3 in /  1025.3 hPa North 1 mph /  1.6 km/h 2 mph /  3.2 km/h 86 % 0 in /  0.0 mm
21:02 40.8 °F /  4.9 °C 37 °F /  2.8 °C 30.3 in /  1025.3 hPa NNW 1 mph /  1.6 km/h 2 mph /  3.2 km/h 86 % 0 in /  0.0 mm
21:07 40.6 °F /  4.8 °C 36.9 °F /  2.7 °C 30.3 in /  1025.3 hPa NNW 1 mph /  1.6 km/h 2 mph /  3.2 km/h 86 % 0 in /  0.0 mm
21:12 40.6 °F /  4.8 °C 36.9 °F /  2.7 °C 30.3 in /  1025.6 hPa NW 1 mph /  1.6 km/h 2 mph /  3.2 km/h 86 % 0 in /  0.0 mm
21:17 40.5 °F /  4.7 °C 36.9 °F /  2.7 °C 30.3 in /  1025.6 hPa Calm   2 mph /  3.2 km/h 87 % 0 in /  0.0 mm
21:22 40.5 °F /  4.7 °C 36.9 °F /  2.7 °C 30.3 in /  1025.3 hPa NNW 1 mph /  1.6 km/h 2 mph /  3.2 km/h 87 % 0 in /  0.0 mm
21:27 40.5 °F /  4.7 °C 36.9 °F /  2.7 °C 30.3 in /  1025.3 hPa NE 1 mph /  1.6 km/h 2 mph /  3.2 km/h 87 % 0 in /  0.0 mm
21:32 40.5 °F /  4.7 °C 36.9 °F /  2.7 °C 30.3 in /  1025.3 hPa North 4 mph /  6.4 km/h 4 mph /  6.4 km/h 87 % 0 in /  0.0 mm
21:37 40.6 °F /  4.8 °C 37 °F /  2.8 °C 30.3 in /  1025.3 hPa NNW 1 mph /  1.6 km/h 4 mph /  6.4 km/h 87 % 0 in /  0.0 mm
21:42 40.3 °F /  4.6 °C 36.7 °F /  2.6 °C 30.3 in /  1025.3 hPa NW 1 mph /  1.6 km/h 4 mph /  6.4 km/h 87 % 0 in /  0.0 mm
21:47 40.3 °F /  4.6 °C 37 °F /  2.8 °C 30.3 in /  1025.3 hPa NNW 2 mph /  3.2 km/h 4 mph /  6.4 km/h 88 % 0 in /  0.0 mm
21:52 40.3 °F /  4.6 °C 37 °F /  2.8 °C 30.3 in /  1025.3 hPa North 3 mph /  4.8 km/h 3 mph /  4.8 km/h 88 % 0 in /  0.0 mm
22:02 40.1 °F /  4.5 °C 36.9 °F /  2.7 °C 30.3 in /  1025.6 hPa NNW 2 mph /  3.2 km/h 4 mph /  6.4 km/h 88 % 0 in /  0.0 mm
22:07 40.1 °F /  4.5 °C 36.9 °F /  2.7 °C 30.3 in /  1025.3 hPa North 2 mph /  3.2 km/h 4 mph /  6.4 km/h 88 % 0 in /  0.0 mm
22:12 40.3 °F /  4.6 °C 37 °F /  2.8 °C 30.3 in /  1025.3 hPa NNW 2 mph /  3.2 km/h 4 mph /  6.4 km/h 88 % 0 in /  0.0 mm
22:17 40.3 °F /  4.6 °C 37 °F /  2.8 °C 30.3 in /  1025.3 hPa North 2 mph /  3.2 km/h 4 mph /  6.4 km/h 88 % 0 in /  0.0 mm
22:22 39.9 °F /  4.4 °C 36.7 °F /  2.6 °C 30.3 in /  1025.3 hPa Calm   4 mph /  6.4 km/h 88 % 0 in /  0.0 mm
22:32 39.9 °F /  4.4 °C 36.7 °F /  2.6 °C 30.3 in /  1025.3 hPa NNW 1 mph /  1.6 km/h 3 mph /  4.8 km/h 88 % 0 in /  0.0 mm
22:37 39.9 °F /  4.4 °C 36.7 °F /  2.6 °C 30.3 in /  1025.3 hPa NE 2 mph /  3.2 km/h 3 mph /  4.8 km/h 88 % 0 in /  0.0 mm
22:42 39.9 °F /  4.4 °C 36.9 °F /  2.7 °C 30.3 in /  1025.3 hPa North 1 mph /  1.6 km/h 3 mph /  4.8 km/h 89 % 0 in /  0.0 mm
22:47 39.9 °F /  4.4 °C 36.9 °F /  2.7 °C 30.3 in /  1025.3 hPa NNW 2 mph /  3.2 km/h 5 mph /  8.0 km/h 89 % 0 in /  0.0 mm
22:52 39.9 °F /  4.4 °C 36.9 °F /  2.7 °C 30.3 in /  1025.3 hPa North 3 mph /  4.8 km/h 5 mph /  8.0 km/h 89 % 0 in /  0.0 mm
22:57 39.9 °F /  4.4 °C 36.9 °F /  2.7 °C 30.3 in /  1025.3 hPa NNW 2 mph /  3.2 km/h 6 mph /  9.7 km/h 89 % 0 in /  0.0 mm
23:02 39.9 °F /  4.4 °C 36.9 °F /  2.7 °C 30.3 in /  1025.3 hPa NNW 1 mph /  1.6 km/h 6 mph /  9.7 km/h 89 % 0 in /  0.0 mm
23:12 39.6 °F /  4.2 °C 36.3 °F /  2.4 °C 30.3 in /  1025.6 hPa NNW 5 mph /  8.0 km/h 8 mph /  12.9 km/h 88 % 0 in /  0.0 mm
23:17 39.6 °F /  4.2 °C 36.3 °F /  2.4 °C 30.3 in /  1025.6 hPa North 5 mph /  8.0 km/h 9 mph /  14.5 km/h 88 % 0 in /  0.0 mm
23:22 39.4 °F /  4.1 °C 36.1 °F /  2.3 °C 30.3 in /  1025.3 hPa NW 4 mph /  6.4 km/h 9 mph /  14.5 km/h 88 % 0 in /  0.0 mm
23:27 39 °F /  3.9 °C 35.8 °F /  2.1 °C 30.3 in /  1025.3 hPa NW 4 mph /  6.4 km/h 9 mph /  14.5 km/h 88 % 0 in /  0.0 mm
23:32 38.8 °F /  3.8 °C 36 °F /  2.2 °C 30.3 in /  1025.3 hPa NNW 3 mph /  4.8 km/h 7 mph /  11.3 km/h 89 % 0 in /  0.0 mm
23:37 38.7 °F /  3.7 °C 35.8 °F /  2.1 °C 30.3 in /  1025.3 hPa North 5 mph /  8.0 km/h 8 mph /  12.9 km/h 89 % 0 in /  0.0 mm
23:42 38.8 °F /  3.8 °C 36 °F /  2.2 °C 30.3 in /  1025.3 hPa NE 5 mph /  8.0 km/h 8 mph /  12.9 km/h 89 % 0 in /  0.0 mm
23:47 38.8 °F /  3.8 °C 36 °F /  2.2 °C 30.3 in /  1025.3 hPa North 3 mph /  4.8 km/h 8 mph /  12.9 km/h 89 % 0 in /  0.0 mm
23:52 38.7 °F /  3.7 °C 35.8 °F /  2.1 °C 30.3 in /  1025.3 hPa North 2 mph /  3.2 km/h 8 mph /  12.9 km/h 89 % 0 in /  0.0 mm
23:57 38.7 °F /  3.7 °C 35.8 °F /  2.1 °C 30.3 in /  1025.6 hPa NNW 4 mph /  6.4 km/h 7 mph /  11.3 km/h 89 % 0 in /  0.0 mm
Meteo18
Compliments of Weather Underground - 4 mb

Script developed by  Jim McMurry - jmcmurry@mwt.net Adapted for the template by  Wim van der Kuil - Leuven-Template.eu

You find our weather info also at:

European Weather Network

Weather Underground

Equipment we use:

Weather-station
Davis Vue

Weather-program
Meteohub

Weather-server
Raspberry PI 2 B+

Provider
1 and 1

Davis Vue

Meteohub

Raspberry PI 2 B+

1 and 1